createdAt,value
2023-05-05T00:00:00.037Z,995.49
2023-05-05T00:00:10.291Z,995.49
2023-05-05T00:00:20.554Z,995.49
2023-05-05T00:00:30.826Z,995.48
2023-05-05T00:00:41.088Z,995.49
2023-05-05T00:00:51.356Z,995.49
2023-05-05T00:01:01.623Z,995.48
2023-05-05T00:01:11.873Z,995.48
2023-05-05T00:01:22.140Z,995.48
2023-05-05T00:01:32.422Z,995.48
2023-05-05T00:01:42.668Z,995.48
2023-05-05T00:01:52.981Z,995.48
2023-05-05T00:02:03.237Z,995.47
2023-05-05T00:02:13.560Z,995.47
2023-05-05T00:02:23.820Z,995.47
2023-05-05T00:02:34.186Z,995.47
2023-05-05T00:02:44.534Z,995.47
2023-05-05T00:02:54.997Z,995.47
2023-05-05T00:03:05.346Z,995.47
2023-05-05T00:03:15.649Z,995.47
2023-05-05T00:03:26.084Z,995.47
2023-05-05T00:03:36.452Z,995.47
2023-05-05T00:03:46.850Z,995.47
2023-05-05T00:03:57.174Z,995.47
2023-05-05T00:04:07.468Z,995.46
2023-05-05T00:04:18.001Z,995.45
2023-05-05T00:04:28.135Z,995.45
2023-05-05T00:04:38.409Z,995.44
2023-05-05T00:04:48.672Z,995.44
2023-05-05T00:04:58.929Z,995.43
2023-05-05T00:05:09.186Z,995.43
2023-05-05T00:05:19.457Z,995.42
2023-05-05T00:05:29.718Z,995.42
2023-05-05T00:05:39.980Z,995.41
2023-05-05T00:05:50.246Z,995.41
2023-05-05T00:06:00.523Z,995.40
2023-05-05T00:06:10.779Z,995.40
2023-05-05T00:06:21.020Z,995.40
2023-05-05T00:06:31.282Z,995.39
2023-05-05T00:06:41.543Z,995.39
2023-05-05T00:06:51.805Z,995.39
2023-05-05T00:07:02.061Z,995.39
2023-05-05T00:07:12.330Z,995.40
2023-05-05T00:07:22.605Z,995.41
2023-05-05T00:07:32.867Z,995.42
2023-05-05T00:07:43.120Z,995.43
2023-05-05T00:07:53.405Z,995.43
2023-05-05T00:08:03.684Z,995.43
2023-05-05T00:08:13.933Z,995.43
2023-05-05T00:08:24.214Z,995.43
2023-05-05T00:08:34.456Z,995.44
2023-05-05T00:08:44.705Z,995.44
2023-05-05T00:08:54.968Z,995.45
2023-05-05T00:09:05.232Z,995.44
2023-05-05T00:09:15.533Z,995.43
2023-05-05T00:09:25.753Z,995.42
2023-05-05T00:09:36.011Z,995.42
2023-05-05T00:09:46.288Z,995.42
2023-05-05T00:09:56.527Z,995.43
2023-05-05T00:10:07.124Z,995.43
2023-05-05T00:10:17.068Z,995.44
2023-05-05T00:10:27.331Z,995.44
2023-05-05T00:10:37.592Z,995.45
2023-05-05T00:10:47.856Z,995.46
2023-05-05T00:10:58.124Z,995.46
2023-05-05T00:11:08.442Z,995.45
2023-05-05T00:11:18.667Z,995.45
2023-05-05T00:11:28.919Z,995.45
2023-05-05T00:11:39.179Z,995.45
2023-05-05T00:11:49.442Z,995.45
2023-05-05T00:11:59.703Z,995.46
2023-05-05T00:12:09.969Z,995.46
2023-05-05T00:12:20.234Z,995.47
2023-05-05T00:12:30.559Z,995.47
2023-05-05T00:12:40.835Z,995.47
2023-05-05T00:12:51.142Z,995.47
2023-05-05T00:13:01.394Z,995.47
2023-05-05T00:13:11.791Z,995.47
2023-05-05T00:13:21.917Z,995.47
2023-05-05T00:13:32.173Z,995.47
2023-05-05T00:13:42.433Z,995.47
2023-05-05T00:13:52.705Z,995.46
2023-05-05T00:14:02.996Z,995.46
2023-05-05T00:14:13.236Z,995.45
2023-05-05T00:14:23.503Z,995.45
2023-05-05T00:14:33.767Z,995.45
2023-05-05T00:14:44.018Z,995.45
2023-05-05T00:14:54.293Z,995.45
2023-05-05T00:15:04.551Z,995.45
2023-05-05T00:15:14.802Z,995.46
2023-05-05T00:15:25.056Z,995.46
2023-05-05T00:15:35.331Z,995.46
2023-05-05T00:15:45.606Z,995.46
2023-05-05T00:15:55.876Z,995.46
2023-05-05T00:16:06.136Z,995.46
2023-05-05T00:16:16.394Z,995.46
2023-05-05T00:16:26.701Z,995.46
2023-05-05T00:16:37.006Z,995.46
2023-05-05T00:16:47.331Z,995.45
2023-05-05T00:16:57.610Z,995.46
2023-05-05T00:17:08.011Z,995.46
2023-05-05T00:17:18.304Z,995.46
2023-05-05T00:17:28.554Z,995.46
2023-05-05T00:17:38.829Z,995.46
2023-05-05T00:17:49.098Z,995.46
2023-05-05T00:17:59.370Z,995.46
2023-05-05T00:18:09.694Z,995.47
2023-05-05T00:18:19.948Z,995.47
2023-05-05T00:18:30.189Z,995.47
2023-05-05T00:18:40.436Z,995.47
2023-05-05T00:18:50.697Z,995.46
2023-05-05T00:19:00.972Z,995.46
2023-05-05T00:19:11.254Z,995.46
2023-05-05T00:19:21.496Z,995.47
2023-05-05T00:19:31.749Z,995.46
2023-05-05T00:19:42.030Z,995.46
2023-05-05T00:19:52.259Z,995.46
2023-05-05T00:20:02.554Z,995.46
2023-05-05T00:20:12.791Z,995.46
2023-05-05T00:20:23.046Z,995.45
2023-05-05T00:20:33.318Z,995.45
2023-05-05T00:20:43.586Z,995.44
2023-05-05T00:20:53.886Z,995.44
2023-05-05T00:21:04.115Z,995.44
2023-05-05T00:21:14.384Z,995.43
2023-05-05T00:21:24.632Z,995.43
2023-05-05T00:21:34.894Z,995.43
2023-05-05T00:21:45.156Z,995.43
2023-05-05T00:21:55.419Z,995.42
2023-05-05T00:22:05.681Z,995.42
2023-05-05T00:22:15.955Z,995.42
2023-05-05T00:22:26.204Z,995.41
2023-05-05T00:22:36.470Z,995.41
2023-05-05T00:22:46.739Z,995.41
2023-05-05T00:22:56.981Z,995.41
2023-05-05T00:23:07.237Z,995.41
2023-05-05T00:23:17.514Z,995.41
2023-05-05T00:23:27.785Z,995.42
2023-05-05T00:23:38.024Z,995.42
2023-05-05T00:23:48.280Z,995.42
2023-05-05T00:23:58.560Z,995.42
2023-05-05T00:24:08.808Z,995.42
2023-05-05T00:24:19.072Z,995.42
2023-05-05T00:24:29.338Z,995.42
2023-05-05T00:24:39.592Z,995.42
2023-05-05T00:24:49.851Z,995.43
2023-05-05T00:25:00.127Z,995.43
2023-05-05T00:25:10.384Z,995.42
2023-05-05T00:25:20.641Z,995.42
2023-05-05T00:25:30.926Z,995.42
2023-05-05T00:25:41.182Z,995.42
2023-05-05T00:25:51.446Z,995.42
2023-05-05T00:26:01.721Z,995.42
2023-05-05T00:26:11.993Z,995.42
2023-05-05T00:26:22.226Z,995.42
2023-05-05T00:26:32.485Z,995.42
2023-05-05T00:26:42.752Z,995.42
2023-05-05T00:26:53.017Z,995.42
2023-05-05T00:27:03.283Z,995.42
2023-05-05T00:27:13.539Z,995.42
2023-05-05T00:27:23.789Z,995.41
2023-05-05T00:27:34.053Z,995.41
2023-05-05T00:27:44.316Z,995.41
2023-05-05T00:27:54.580Z,995.41
2023-05-05T00:28:04.840Z,995.41
2023-05-05T00:28:15.095Z,995.41
2023-05-05T00:28:25.359Z,995.41
2023-05-05T00:28:35.629Z,995.41
2023-05-05T00:28:45.956Z,995.41
2023-05-05T00:28:56.173Z,995.41
2023-05-05T00:29:06.433Z,995.41
2023-05-05T00:29:16.704Z,995.41
2023-05-05T00:29:26.983Z,995.41
2023-05-05T00:29:37.250Z,995.41
2023-05-05T00:29:47.492Z,995.41
2023-05-05T00:29:57.755Z,995.41
2023-05-05T00:30:08.367Z,995.41
2023-05-05T00:30:18.294Z,995.41
2023-05-05T00:30:28.550Z,995.42
2023-05-05T00:30:38.850Z,995.42
2023-05-05T00:30:49.179Z,995.42
2023-05-05T00:30:59.403Z,995.42
2023-05-05T00:31:09.645Z,995.42
2023-05-05T00:31:19.978Z,995.42
2023-05-05T00:31:30.263Z,995.42
2023-05-05T00:31:40.619Z,995.42
2023-05-05T00:31:50.923Z,995.42
2023-05-05T00:32:01.191Z,995.42
2023-05-05T00:32:11.444Z,995.43
2023-05-05T00:32:21.754Z,995.42
2023-05-05T00:32:32.011Z,995.42
2023-05-05T00:32:42.340Z,995.42
2023-05-05T00:32:52.605Z,995.42
2023-05-05T00:33:02.991Z,995.42
2023-05-05T00:33:13.268Z,995.42
2023-05-05T00:33:23.534Z,995.42
2023-05-05T00:33:33.824Z,995.42
2023-05-05T00:33:44.055Z,995.42
2023-05-05T00:33:54.331Z,995.42
2023-05-05T00:34:04.580Z,995.42
2023-05-05T00:34:14.841Z,995.42
2023-05-05T00:34:25.108Z,995.42
2023-05-05T00:34:35.493Z,995.41
2023-05-05T00:34:45.741Z,995.42
2023-05-05T00:34:56.002Z,995.41
2023-05-05T00:35:06.307Z,995.41
2023-05-05T00:35:16.567Z,995.41
2023-05-05T00:35:26.833Z,995.41
2023-05-05T00:35:37.140Z,995.41
2023-05-05T00:35:47.376Z,995.41
2023-05-05T00:35:57.626Z,995.41
2023-05-05T00:36:07.885Z,995.41
2023-05-05T00:36:18.149Z,995.41
2023-05-05T00:36:28.410Z,995.40
2023-05-05T00:36:38.672Z,995.40
2023-05-05T00:36:48.930Z,995.40
2023-05-05T00:36:59.200Z,995.40
2023-05-05T00:37:09.467Z,995.40
2023-05-05T00:37:19.714Z,995.40
2023-05-05T00:37:29.975Z,995.40
2023-05-05T00:37:40.238Z,995.40
2023-05-05T00:37:50.494Z,995.40
2023-05-05T00:38:00.756Z,995.40
2023-05-05T00:38:11.014Z,995.40
2023-05-05T00:38:21.277Z,995.39
2023-05-05T00:38:31.546Z,995.39
2023-05-05T00:38:41.812Z,995.39
2023-05-05T00:38:52.060Z,995.38
2023-05-05T00:39:02.326Z,995.38
2023-05-05T00:39:12.586Z,995.38
2023-05-05T00:39:22.845Z,995.38
2023-05-05T00:39:33.107Z,995.38
2023-05-05T00:39:43.372Z,995.38
2023-05-05T00:39:53.627Z,995.37
2023-05-05T00:40:03.903Z,995.37
2023-05-05T00:40:14.154Z,995.37
2023-05-05T00:40:24.407Z,995.37
2023-05-05T00:40:34.681Z,995.36
2023-05-05T00:40:44.947Z,995.36
2023-05-05T00:40:55.212Z,995.36
2023-05-05T00:41:05.492Z,995.36
2023-05-05T00:41:15.760Z,995.35
2023-05-05T00:41:26.012Z,995.35
2023-05-05T00:41:36.274Z,995.35
2023-05-05T00:41:46.543Z,995.35
2023-05-05T00:41:56.798Z,995.35
2023-05-05T00:42:07.056Z,995.35
2023-05-05T00:42:17.316Z,995.34
2023-05-05T00:42:27.579Z,995.34
2023-05-05T00:42:37.838Z,995.34
2023-05-05T00:42:48.129Z,995.34
2023-05-05T00:42:58.369Z,995.34
2023-05-05T00:43:08.635Z,995.33
2023-05-05T00:43:18.885Z,995.34
2023-05-05T00:43:29.143Z,995.33
2023-05-05T00:43:39.404Z,995.33
2023-05-05T00:43:49.677Z,995.33
2023-05-05T00:43:59.932Z,995.34
2023-05-05T00:44:10.188Z,995.34
2023-05-05T00:44:20.445Z,995.34
2023-05-05T00:44:30.718Z,995.35
2023-05-05T00:44:40.966Z,995.35
2023-05-05T00:44:51.234Z,995.35
2023-05-05T00:45:01.504Z,995.35
2023-05-05T00:45:11.752Z,995.35
2023-05-05T00:45:22.010Z,995.36
2023-05-05T00:45:32.315Z,995.36
2023-05-05T00:45:42.554Z,995.36
2023-05-05T00:45:52.807Z,995.36
2023-05-05T00:46:03.159Z,995.36
2023-05-05T00:46:13.483Z,995.37
2023-05-05T00:46:23.744Z,995.37
2023-05-05T00:46:34.055Z,995.37
2023-05-05T00:46:44.421Z,995.37
2023-05-05T00:46:54.662Z,995.37
2023-05-05T00:47:04.936Z,995.38
2023-05-05T00:47:15.188Z,995.38
2023-05-05T00:47:25.453Z,995.38
2023-05-05T00:47:35.726Z,995.38
2023-05-05T00:47:46.061Z,995.38
2023-05-05T00:47:56.334Z,995.39
2023-05-05T00:48:06.614Z,995.39
2023-05-05T00:48:16.947Z,995.39
2023-05-05T00:48:27.264Z,995.39
2023-05-05T00:48:37.510Z,995.39
2023-05-05T00:48:47.767Z,995.39
2023-05-05T00:48:58.072Z,995.39
2023-05-05T00:49:08.337Z,995.39
2023-05-05T00:49:18.595Z,995.39
2023-05-05T00:49:28.909Z,995.39
2023-05-05T00:49:39.221Z,995.39
2023-05-05T00:49:49.485Z,995.39
2023-05-05T00:49:59.744Z,995.38
2023-05-05T00:50:10.074Z,995.38
2023-05-05T00:50:20.314Z,995.38
2023-05-05T00:50:30.722Z,995.38
2023-05-05T00:50:41.038Z,995.38
2023-05-05T00:50:51.307Z,995.37
2023-05-05T00:51:01.572Z,995.38
2023-05-05T00:51:11.833Z,995.38
2023-05-05T00:51:22.101Z,995.37
2023-05-05T00:51:32.349Z,995.38
2023-05-05T00:51:42.615Z,995.38
2023-05-05T00:51:52.872Z,995.38
2023-05-05T00:52:03.134Z,995.38
2023-05-05T00:52:13.394Z,995.38
2023-05-05T00:52:23.654Z,995.38
2023-05-05T00:52:33.913Z,995.38
2023-05-05T00:52:44.172Z,995.38
2023-05-05T00:52:54.432Z,995.38
2023-05-05T00:53:04.742Z,995.38
2023-05-05T00:53:15.002Z,995.38
2023-05-05T00:53:25.253Z,995.38
2023-05-05T00:53:35.516Z,995.38
2023-05-05T00:53:45.769Z,995.39
2023-05-05T00:53:56.054Z,995.39
2023-05-05T00:54:06.293Z,995.39
2023-05-05T00:54:16.574Z,995.39
2023-05-05T00:54:26.814Z,995.39
2023-05-05T00:54:37.091Z,995.39
2023-05-05T00:54:47.337Z,995.39
2023-05-05T00:54:57.608Z,995.40
2023-05-05T00:55:07.873Z,995.40
2023-05-05T00:55:18.115Z,995.40
2023-05-05T00:55:28.420Z,995.41
2023-05-05T00:55:38.696Z,995.41
2023-05-05T00:55:48.950Z,995.41
2023-05-05T00:55:59.238Z,995.41
2023-05-05T00:56:09.468Z,995.42
2023-05-05T00:56:19.747Z,995.42
2023-05-05T00:56:29.996Z,995.42
2023-05-05T00:56:40.253Z,995.42
2023-05-05T00:56:50.506Z,995.43
2023-05-05T00:57:00.766Z,995.43
2023-05-05T00:57:11.033Z,995.43
2023-05-05T00:57:21.296Z,995.43
2023-05-05T00:57:31.562Z,995.43
2023-05-05T00:57:41.771Z,995.43
2023-05-05T00:57:52.032Z,995.43
2023-05-05T00:58:02.296Z,995.43
2023-05-05T00:58:12.548Z,995.43
2023-05-05T00:58:22.815Z,995.43
2023-05-05T00:58:33.141Z,995.44
2023-05-05T00:58:43.374Z,995.44
2023-05-05T00:58:53.635Z,995.44
2023-05-05T00:59:03.898Z,995.44
2023-05-05T00:59:14.155Z,995.45
2023-05-05T00:59:24.415Z,995.45
2023-05-05T00:59:34.682Z,995.45
2023-05-05T00:59:44.944Z,995.45
2023-05-05T00:59:55.201Z,995.45
2023-05-05T01:00:05.665Z,995.45
2023-05-05T01:00:15.744Z,995.45
2023-05-05T01:00:26.023Z,995.46
2023-05-05T01:00:36.278Z,995.46
2023-05-05T01:00:46.555Z,995.46
2023-05-05T01:00:56.809Z,995.46
2023-05-05T01:01:07.066Z,995.47
2023-05-05T01:01:17.377Z,995.46
2023-05-05T01:01:27.622Z,995.46
2023-05-05T01:01:37.885Z,995.47
2023-05-05T01:01:48.182Z,995.47
2023-05-05T01:01:58.536Z,995.47
2023-05-05T01:02:08.781Z,995.47
2023-05-05T01:02:19.046Z,995.47
2023-05-05T01:02:29.345Z,995.47
2023-05-05T01:02:39.600Z,995.48
2023-05-05T01:02:49.904Z,995.48
2023-05-05T01:03:00.369Z,995.48
2023-05-05T01:03:10.663Z,995.48
2023-05-05T01:03:21.033Z,995.47
2023-05-05T01:03:31.377Z,995.47
2023-05-05T01:03:41.857Z,995.48
2023-05-05T01:03:52.240Z,995.48
2023-05-05T01:04:02.281Z,995.48
2023-05-05T01:04:12.523Z,995.48
2023-05-05T01:04:22.788Z,995.48
2023-05-05T01:04:33.050Z,995.48
2023-05-05T01:04:43.306Z,995.48
2023-05-05T01:04:53.570Z,995.48
2023-05-05T01:05:03.851Z,995.48
2023-05-05T01:05:14.140Z,995.47
2023-05-05T01:05:24.383Z,995.47
2023-05-05T01:05:34.642Z,995.47
2023-05-05T01:05:44.916Z,995.47
2023-05-05T01:05:55.167Z,995.48
2023-05-05T01:06:05.432Z,995.47
2023-05-05T01:06:15.712Z,995.47
2023-05-05T01:06:25.965Z,995.47
2023-05-05T01:06:36.231Z,995.47
2023-05-05T01:06:46.495Z,995.47
2023-05-05T01:06:56.745Z,995.47
2023-05-05T01:07:07.009Z,995.47
2023-05-05T01:07:17.284Z,995.46
2023-05-05T01:07:27.542Z,995.47
2023-05-05T01:07:37.796Z,995.47
2023-05-05T01:07:48.058Z,995.47
2023-05-05T01:07:58.318Z,995.46
2023-05-05T01:08:08.569Z,995.47
2023-05-05T01:08:18.838Z,995.46
2023-05-05T01:08:29.092Z,995.46
2023-05-05T01:08:39.356Z,995.46
2023-05-05T01:08:49.613Z,995.46
2023-05-05T01:08:59.875Z,995.47
2023-05-05T01:09:10.134Z,995.47
2023-05-05T01:09:20.398Z,995.47
2023-05-05T01:09:30.657Z,995.47
2023-05-05T01:09:40.911Z,995.47
2023-05-05T01:10:00.836Z,995.47
2023-05-05T01:10:17.891Z,995.46
2023-05-05T01:10:20.364Z,995.46
2023-05-05T01:10:23.642Z,995.46
2023-05-05T01:10:32.612Z,995.46
2023-05-05T01:10:42.878Z,995.46
2023-05-05T01:10:53.138Z,995.46
2023-05-05T01:11:03.397Z,995.46
2023-05-05T01:11:13.672Z,995.45
2023-05-05T01:11:23.948Z,995.45
2023-05-05T01:11:34.193Z,995.45
2023-05-05T01:11:44.460Z,995.46
2023-05-05T01:11:54.702Z,995.46
2023-05-05T01:12:04.970Z,995.45
2023-05-05T01:12:15.240Z,995.45
2023-05-05T01:12:25.521Z,995.45
2023-05-05T01:12:35.785Z,995.45
2023-05-05T01:12:46.066Z,995.45
2023-05-05T01:12:56.365Z,995.45
2023-05-05T01:13:06.732Z,995.45
2023-05-05T01:13:16.871Z,995.45
2023-05-05T01:13:27.121Z,995.45
2023-05-05T01:13:37.388Z,995.45
2023-05-05T01:13:47.636Z,995.46
2023-05-05T01:13:57.896Z,995.46
2023-05-05T01:14:08.154Z,995.46
2023-05-05T01:14:18.440Z,995.46
2023-05-05T01:14:28.684Z,995.47
2023-05-05T01:14:38.946Z,995.47
2023-05-05T01:14:49.205Z,995.46
2023-05-05T01:14:59.463Z,995.46
2023-05-05T01:15:09.727Z,995.47
2023-05-05T01:15:20.012Z,995.47
2023-05-05T01:15:30.282Z,995.47
2023-05-05T01:15:40.567Z,995.47
2023-05-05T01:15:50.822Z,995.47
2023-05-05T01:16:01.119Z,995.47
2023-05-05T01:16:11.464Z,995.47
2023-05-05T01:16:21.719Z,995.47
2023-05-05T01:16:32.078Z,995.47
2023-05-05T01:16:42.369Z,995.47
2023-05-05T01:16:52.615Z,995.47
2023-05-05T01:17:02.878Z,995.47
2023-05-05T01:17:13.143Z,995.48
2023-05-05T01:17:23.411Z,995.48
2023-05-05T01:17:33.710Z,995.49
2023-05-05T01:17:43.992Z,995.49
2023-05-05T01:17:54.289Z,995.49
2023-05-05T01:18:04.575Z,995.49
2023-05-05T01:18:14.810Z,995.49
2023-05-05T01:18:25.065Z,995.49
2023-05-05T01:18:35.333Z,995.49
2023-05-05T01:18:45.589Z,995.49
2023-05-05T01:18:55.869Z,995.49
2023-05-05T01:19:06.120Z,995.49
2023-05-05T01:19:16.375Z,995.49
2023-05-05T01:19:26.645Z,995.50
2023-05-05T01:19:36.890Z,995.49
2023-05-05T01:19:47.151Z,995.50
2023-05-05T01:19:57.418Z,995.50
2023-05-05T01:20:07.998Z,995.50
2023-05-05T01:20:18.078Z,995.51
2023-05-05T01:20:28.353Z,995.51
2023-05-05T01:20:38.604Z,995.52
2023-05-05T01:20:48.874Z,995.52
2023-05-05T01:20:59.130Z,995.52
2023-05-05T01:21:09.393Z,995.53
2023-05-05T01:21:19.660Z,995.53
2023-05-05T01:21:29.919Z,995.54
2023-05-05T01:21:40.195Z,995.54
2023-05-05T01:21:50.457Z,995.55
2023-05-05T01:22:00.783Z,995.55
2023-05-05T01:22:11.051Z,995.55
2023-05-05T01:22:21.320Z,995.56
2023-05-05T01:22:31.569Z,995.56
2023-05-05T01:22:41.839Z,995.56
2023-05-05T01:22:52.096Z,995.56
2023-05-05T01:23:02.382Z,995.56
2023-05-05T01:23:12.634Z,995.56
2023-05-05T01:23:22.895Z,995.56
2023-05-05T01:23:33.172Z,995.57
2023-05-05T01:23:43.431Z,995.56
2023-05-05T01:23:53.678Z,995.56
2023-05-05T01:24:03.935Z,995.56
2023-05-05T01:24:14.198Z,995.56
2023-05-05T01:24:24.457Z,995.57
2023-05-05T01:24:34.714Z,995.57
2023-05-05T01:24:44.984Z,995.57
2023-05-05T01:24:55.247Z,995.57
2023-05-05T01:25:05.533Z,995.57
2023-05-05T01:25:15.780Z,995.57
2023-05-05T01:25:26.040Z,995.56
2023-05-05T01:25:36.299Z,995.56
2023-05-05T01:25:46.557Z,995.56
2023-05-05T01:25:56.822Z,995.56
2023-05-05T01:26:07.078Z,995.56
2023-05-05T01:26:17.350Z,995.56
2023-05-05T01:26:27.616Z,995.56
2023-05-05T01:26:37.855Z,995.56
2023-05-05T01:26:48.170Z,995.55
2023-05-05T01:26:58.415Z,995.55
2023-05-05T01:27:08.678Z,995.55
2023-05-05T01:27:18.934Z,995.55
2023-05-05T01:27:29.203Z,995.55
2023-05-05T01:27:39.460Z,995.55
2023-05-05T01:27:49.719Z,995.55
2023-05-05T01:27:59.999Z,995.54
2023-05-05T01:28:10.259Z,995.54
2023-05-05T01:28:20.529Z,995.54
2023-05-05T01:28:30.781Z,995.54
2023-05-05T01:28:41.042Z,995.55
2023-05-05T01:28:51.300Z,995.55
2023-05-05T01:29:01.576Z,995.55
2023-05-05T01:29:11.821Z,995.54
2023-05-05T01:29:22.084Z,995.54
2023-05-05T01:29:32.345Z,995.55
2023-05-05T01:29:42.617Z,995.55
2023-05-05T01:29:52.868Z,995.56
2023-05-05T01:30:03.232Z,995.56
2023-05-05T01:30:13.490Z,995.56
2023-05-05T01:30:23.734Z,995.56
2023-05-05T01:30:34.008Z,995.56
2023-05-05T01:30:44.281Z,995.56
2023-05-05T01:30:54.537Z,995.57
2023-05-05T01:31:04.787Z,995.57
2023-05-05T01:31:15.084Z,995.57
2023-05-05T01:31:25.391Z,995.59
2023-05-05T01:31:35.702Z,995.59
2023-05-05T01:31:45.968Z,995.59
2023-05-05T01:31:56.396Z,995.58
2023-05-05T01:32:06.450Z,995.58
2023-05-05T01:32:16.716Z,995.59
2023-05-05T01:32:27.008Z,995.60
2023-05-05T01:32:37.326Z,995.60
2023-05-05T01:32:47.558Z,995.60
2023-05-05T01:32:57.854Z,995.60
2023-05-05T01:33:08.116Z,995.61
2023-05-05T01:33:18.398Z,995.62
2023-05-05T01:33:28.629Z,995.62
2023-05-05T01:33:38.891Z,995.62
2023-05-05T01:33:49.157Z,995.63
2023-05-05T01:33:59.414Z,995.63
2023-05-05T01:34:09.756Z,995.63
2023-05-05T01:34:19.975Z,995.63
2023-05-05T01:34:30.235Z,995.63
2023-05-05T01:34:40.494Z,995.63
2023-05-05T01:34:50.756Z,995.63
2023-05-05T01:35:01.016Z,995.63
2023-05-05T01:35:11.284Z,995.64
2023-05-05T01:35:21.560Z,995.63
2023-05-05T01:35:31.822Z,995.64
2023-05-05T01:35:42.066Z,995.64
2023-05-05T01:35:52.319Z,995.62
2023-05-05T01:36:02.583Z,995.63
2023-05-05T01:36:12.834Z,995.64
2023-05-05T01:36:23.093Z,995.65
2023-05-05T01:36:33.361Z,995.65
2023-05-05T01:36:43.617Z,995.65
2023-05-05T01:36:53.899Z,995.65
2023-05-05T01:37:04.155Z,995.65
2023-05-05T01:37:14.417Z,995.65
2023-05-05T01:37:24.671Z,995.65
2023-05-05T01:37:34.953Z,995.65
2023-05-05T01:37:45.216Z,995.65
2023-05-05T01:37:55.496Z,995.65
2023-05-05T01:38:05.760Z,995.65
2023-05-05T01:38:16.006Z,995.64
2023-05-05T01:38:26.258Z,995.64
2023-05-05T01:38:36.531Z,995.64
2023-05-05T01:38:46.794Z,995.63
2023-05-05T01:38:57.045Z,995.63
2023-05-05T01:39:07.303Z,995.62
2023-05-05T01:39:17.561Z,995.62
2023-05-05T01:39:27.822Z,995.63
2023-05-05T01:39:38.084Z,995.63
2023-05-05T01:39:48.344Z,995.64
2023-05-05T01:39:58.605Z,995.64
2023-05-05T01:40:09.061Z,995.64
2023-05-05T01:40:19.213Z,995.64
2023-05-05T01:40:29.496Z,995.64
2023-05-05T01:40:39.764Z,995.63
2023-05-05T01:40:50.026Z,995.63
2023-05-05T01:41:00.289Z,995.63
2023-05-05T01:41:10.565Z,995.64
2023-05-05T01:41:20.801Z,995.64
2023-05-05T01:41:31.168Z,995.64
2023-05-05T01:41:41.421Z,995.65
2023-05-05T01:41:51.684Z,995.65
2023-05-05T01:42:01.938Z,995.65
2023-05-05T01:42:12.196Z,995.65
2023-05-05T01:42:22.469Z,995.64
2023-05-05T01:42:32.724Z,995.64
2023-05-05T01:42:42.982Z,995.64
2023-05-05T01:42:53.257Z,995.64
2023-05-05T01:43:03.498Z,995.64
2023-05-05T01:43:13.768Z,995.64
2023-05-05T01:43:24.032Z,995.64
2023-05-05T01:43:34.279Z,995.64
2023-05-05T01:43:44.555Z,995.64
2023-05-05T01:43:54.804Z,995.64
2023-05-05T01:44:05.068Z,995.64
2023-05-05T01:44:15.324Z,995.64
2023-05-05T01:44:25.595Z,995.63
2023-05-05T01:44:35.845Z,995.63
2023-05-05T01:44:46.111Z,995.64
2023-05-05T01:44:56.376Z,995.64
2023-05-05T01:45:06.646Z,995.63
2023-05-05T01:45:16.906Z,995.63
2023-05-05T01:45:27.189Z,995.63
2023-05-05T01:45:37.476Z,995.64
2023-05-05T01:45:47.750Z,995.65
2023-05-05T01:45:58.049Z,995.65
2023-05-05T01:46:08.335Z,995.65
2023-05-05T01:46:18.593Z,995.66
2023-05-05T01:46:28.847Z,995.66
2023-05-05T01:46:39.121Z,995.66
2023-05-05T01:46:49.393Z,995.67
2023-05-05T01:46:59.664Z,995.67
2023-05-05T01:47:09.898Z,995.68
2023-05-05T01:47:20.170Z,995.68
2023-05-05T01:47:30.466Z,995.68
2023-05-05T01:47:40.735Z,995.68
2023-05-05T01:47:51.050Z,995.69
2023-05-05T01:48:01.439Z,995.68
2023-05-05T01:48:11.675Z,995.68
2023-05-05T01:48:21.943Z,995.67
2023-05-05T01:48:32.214Z,995.68
2023-05-05T01:48:42.460Z,995.68
2023-05-05T01:48:52.731Z,995.68
2023-05-05T01:49:02.994Z,995.67
2023-05-05T01:49:13.247Z,995.67
2023-05-05T01:49:23.516Z,995.67
2023-05-05T01:49:33.772Z,995.68
2023-05-05T01:49:44.028Z,995.67
2023-05-05T01:49:54.287Z,995.67
2023-05-05T01:50:04.563Z,995.68
2023-05-05T01:50:14.813Z,995.67
2023-05-05T01:50:25.070Z,995.67
2023-05-05T01:50:35.336Z,995.67
2023-05-05T01:50:45.587Z,995.67
2023-05-05T01:50:55.857Z,995.67
2023-05-05T01:51:06.118Z,995.67
2023-05-05T01:51:16.377Z,995.67
2023-05-05T01:51:26.648Z,995.67
2023-05-05T01:51:36.896Z,995.66
2023-05-05T01:51:47.154Z,995.67
2023-05-05T01:51:57.415Z,995.67
2023-05-05T01:52:07.672Z,995.67
2023-05-05T01:52:17.949Z,995.66
2023-05-05T01:52:28.195Z,995.66
2023-05-05T01:52:38.468Z,995.66
2023-05-05T01:52:48.734Z,995.67
2023-05-05T01:52:58.995Z,995.67
2023-05-05T01:53:09.258Z,995.67
2023-05-05T01:53:19.521Z,995.68
2023-05-05T01:53:29.806Z,995.68
2023-05-05T01:53:40.052Z,995.67
2023-05-05T01:53:50.306Z,995.67
2023-05-05T01:54:00.575Z,995.66
2023-05-05T01:54:10.828Z,995.66
2023-05-05T01:54:21.084Z,995.67
2023-05-05T01:54:31.347Z,995.68
2023-05-05T01:54:41.608Z,995.68
2023-05-05T01:54:51.881Z,995.67
2023-05-05T01:55:02.132Z,995.67
2023-05-05T01:55:12.395Z,995.66
2023-05-05T01:55:22.666Z,995.67
2023-05-05T01:55:32.964Z,995.66
2023-05-05T01:55:43.195Z,995.66
2023-05-05T01:55:53.453Z,995.66
2023-05-05T01:56:03.719Z,995.66
2023-05-05T01:56:13.996Z,995.67
2023-05-05T01:56:24.250Z,995.67
2023-05-05T01:56:34.542Z,995.67
2023-05-05T01:56:44.765Z,995.67
2023-05-05T01:56:55.023Z,995.67
2023-05-05T01:57:05.285Z,995.67
2023-05-05T01:57:15.544Z,995.67
2023-05-05T01:57:25.813Z,995.67
2023-05-05T01:57:36.075Z,995.67
2023-05-05T01:57:46.354Z,995.66
2023-05-05T01:57:56.634Z,995.66
2023-05-05T01:58:06.880Z,995.66
2023-05-05T01:58:17.169Z,995.67
2023-05-05T01:58:27.407Z,995.66
2023-05-05T01:58:37.665Z,995.66
2023-05-05T01:58:47.927Z,995.67
2023-05-05T01:58:58.204Z,995.67
2023-05-05T01:59:08.454Z,995.66
2023-05-05T01:59:18.721Z,995.66
2023-05-05T01:59:28.979Z,995.66
2023-05-05T01:59:39.240Z,995.66
2023-05-05T01:59:49.504Z,995.66
2023-05-05T01:59:59.779Z,995.66
2023-05-05T02:00:10.207Z,995.66
2023-05-05T02:00:20.416Z,995.66
2023-05-05T02:00:30.672Z,995.66
2023-05-05T02:00:40.950Z,995.67
2023-05-05T02:00:51.227Z,995.67
2023-05-05T02:01:01.482Z,995.67
2023-05-05T02:01:11.750Z,995.67
2023-05-05T02:01:22.042Z,995.67
2023-05-05T02:01:32.318Z,995.68
2023-05-05T02:01:42.559Z,995.68
2023-05-05T02:01:52.825Z,995.68
2023-05-05T02:02:03.232Z,995.68
2023-05-05T02:02:13.318Z,995.68
2023-05-05T02:02:23.610Z,995.68
2023-05-05T02:02:33.886Z,995.68
2023-05-05T02:02:44.313Z,995.68
2023-05-05T02:02:54.449Z,995.69
2023-05-05T02:03:04.796Z,995.69
2023-05-05T02:03:15.135Z,995.70
2023-05-05T02:03:25.596Z,995.70
2023-05-05T02:03:35.889Z,995.70
2023-05-05T02:03:46.138Z,995.71
2023-05-05T02:03:56.398Z,995.71
2023-05-05T02:04:06.679Z,995.71
2023-05-05T02:04:16.926Z,995.71
2023-05-05T02:04:27.192Z,995.72
2023-05-05T02:04:37.452Z,995.72
2023-05-05T02:04:47.703Z,995.72
2023-05-05T02:04:57.964Z,995.72
2023-05-05T02:05:08.224Z,995.72
2023-05-05T02:05:18.487Z,995.72
2023-05-05T02:05:28.744Z,995.72
2023-05-05T02:05:39.029Z,995.72
2023-05-05T02:05:49.301Z,995.72
2023-05-05T02:05:59.544Z,995.72
2023-05-05T02:06:09.827Z,995.72
2023-05-05T02:06:20.108Z,995.72
2023-05-05T02:06:30.370Z,995.72
2023-05-05T02:06:40.610Z,995.71
2023-05-05T02:06:50.874Z,995.72
2023-05-05T02:07:01.128Z,995.72
2023-05-05T02:07:11.388Z,995.72
2023-05-05T02:07:21.654Z,995.72
2023-05-05T02:07:31.918Z,995.72
2023-05-05T02:07:42.172Z,995.72
2023-05-05T02:07:52.434Z,995.72
2023-05-05T02:08:02.696Z,995.72